sensor_id;sensor_type;location;lat;lon;timestamp;pressure;altitude;pressure_sealevel;temperature;humidity
25080;BME280;13071;48.868;9.996;2022-07-23T00:01:29;96566.34;;;22.74;72.13
25080;BME280;13071;48.868;9.996;2022-07-23T00:03:56;96555.69;;;22.76;72.15
25080;BME280;13071;48.868;9.996;2022-07-23T00:06:23;96558.81;;;22.82;70.75
25080;BME280;13071;48.868;9.996;2022-07-23T00:08:50;96556.81;;;22.83;69.70
25080;BME280;13071;48.868;9.996;2022-07-23T00:11:17;96565.34;;;22.95;69.36
25080;BME280;13071;48.868;9.996;2022-07-23T00:13:44;96542.81;;;23.00;69.65
25080;BME280;13071;48.868;9.996;2022-07-23T00:16:12;96558.56;;;23.03;69.15
25080;BME280;13071;48.868;9.996;2022-07-23T00:18:38;96544.47;;;23.24;66.61
25080;BME280;13071;48.868;9.996;2022-07-23T00:21:05;96543.41;;;23.15;65.57
25080;BME280;13071;48.868;9.996;2022-07-23T00:23:32;96545.69;;;23.23;64.81
25080;BME280;13071;48.868;9.996;2022-07-23T00:25:58;96541.63;;;23.32;64.71
25080;BME280;13071;48.868;9.996;2022-07-23T00:28:25;96537.53;;;23.43;64.32
25080;BME280;13071;48.868;9.996;2022-07-23T00:30:51;96526.13;;;23.41;64.70
25080;BME280;13071;48.868;9.996;2022-07-23T00:33:20;96511.97;;;23.36;65.33
25080;BME280;13071;48.868;9.996;2022-07-23T00:35:46;96512.19;;;23.21;65.41
25080;BME280;13071;48.868;9.996;2022-07-23T00:38:13;96507.19;;;23.13;65.75
25080;BME280;13071;48.868;9.996;2022-07-23T00:40:40;96492.28;;;23.07;66.33
25080;BME280;13071;48.868;9.996;2022-07-23T00:43:07;96484.50;;;22.98;66.18
25080;BME280;13071;48.868;9.996;2022-07-23T00:45:34;96467.63;;;22.93;66.29
25080;BME280;13071;48.868;9.996;2022-07-23T00:48:01;96474.78;;;22.87;66.55
25080;BME280;13071;48.868;9.996;2022-07-23T00:50:29;96489.75;;;22.89;66.59
25080;BME280;13071;48.868;9.996;2022-07-23T00:52:56;96484.25;;;22.86;66.26
25080;BME280;13071;48.868;9.996;2022-07-23T00:55:23;96487.78;;;22.86;66.11
25080;BME280;13071;48.868;9.996;2022-07-23T00:57:50;96499.25;;;22.85;65.95
25080;BME280;13071;48.868;9.996;2022-07-23T01:00:18;96492.59;;;22.82;65.84
25080;BME280;13071;48.868;9.996;2022-07-23T01:02:44;96487.47;;;22.80;65.95
25080;BME280;13071;48.868;9.996;2022-07-23T01:05:11;96491.41;;;22.79;65.72
25080;BME280;13071;48.868;9.996;2022-07-23T01:07:40;96498.50;;;22.80;65.48
25080;BME280;13071;48.868;9.996;2022-07-23T01:10:07;96507.63;;;22.77;65.88
25080;BME280;13071;48.868;9.996;2022-07-23T01:12:56;96509.63;;;22.73;65.26
25080;BME280;13071;48.868;9.996;2022-07-23T01:15:23;96516.69;;;22.74;65.43
25080;BME280;13071;48.868;9.996;2022-07-23T01:17:50;96504.03;;;22.80;64.92
25080;BME280;13071;48.868;9.996;2022-07-23T01:20:17;96503.66;;;22.78;65.15
25080;BME280;13071;48.868;9.996;2022-07-23T01:22:45;96508.81;;;22.76;65.49
25080;BME280;13071;48.868;9.996;2022-07-23T01:25:12;96502.66;;;22.96;64.88
25080;BME280;13071;48.868;9.996;2022-07-23T01:27:39;96501.38;;;23.04;64.42
25080;BME280;13071;48.868;9.996;2022-07-23T01:30:07;96512.38;;;23.07;64.66
25080;BME280;13071;48.868;9.996;2022-07-23T01:32:33;96508.56;;;22.98;66.14
25080;BME280;13071;48.868;9.996;2022-07-23T01:35:00;96518.97;;;22.83;70.61
25080;BME280;13071;48.868;9.996;2022-07-23T01:37:27;96486.34;;;22.78;72.16
25080;BME280;13071;48.868;9.996;2022-07-23T01:39:55;96486.59;;;22.53;71.41
25080;BME280;13071;48.868;9.996;2022-07-23T01:42:21;96493.06;;;22.36;72.16
25080;BME280;13071;48.868;9.996;2022-07-23T01:44:48;96506.44;;;22.37;72.28
25080;BME280;13071;48.868;9.996;2022-07-23T01:47:15;96503.88;;;22.16;73.06
25080;BME280;13071;48.868;9.996;2022-07-23T01:49:41;96506.94;;;22.25;73.28
25080;BME280;13071;48.868;9.996;2022-07-23T01:52:08;96493.66;;;22.17;73.89
25080;BME280;13071;48.868;9.996;2022-07-23T01:54:37;96490.00;;;22.27;73.33
25080;BME280;13071;48.868;9.996;2022-07-23T01:57:06;96478.69;;;22.18;73.38
25080;BME280;13071;48.868;9.996;2022-07-23T01:59:33;96470.91;;;22.09;72.87
25080;BME280;13071;48.868;9.996;2022-07-23T02:02:00;96465.38;;;22.09;72.30
25080;BME280;13071;48.868;9.996;2022-07-23T02:04:28;96474.47;;;22.06;72.25
25080;BME280;13071;48.868;9.996;2022-07-23T02:06:55;96489.75;;;22.14;71.11
25080;BME280;13071;48.868;9.996;2022-07-23T02:09:22;96481.50;;;22.11;71.07
25080;BME280;13071;48.868;9.996;2022-07-23T02:11:48;96472.09;;;22.08;70.94
25080;BME280;13071;48.868;9.996;2022-07-23T02:14:16;96485.47;;;22.06;73.15
25080;BME280;13071;48.868;9.996;2022-07-23T02:16:43;96477.25;;;22.03;72.14
25080;BME280;13071;48.868;9.996;2022-07-23T02:19:10;96461.94;;;21.98;71.45
25080;BME280;13071;48.868;9.996;2022-07-23T02:21:36;96450.91;;;21.98;70.76
25080;BME280;13071;48.868;9.996;2022-07-23T02:24:03;96443.06;;;21.96;70.66
25080;BME280;13071;48.868;9.996;2022-07-23T02:26:30;96445.81;;;21.93;70.33
25080;BME280;13071;48.868;9.996;2022-07-23T02:29:00;96459.16;;;22.02;70.72
25080;BME280;13071;48.868;9.996;2022-07-23T02:31:28;96465.44;;;22.02;70.71
25080;BME280;13071;48.868;9.996;2022-07-23T02:33:54;96478.44;;;22.02;71.77
25080;BME280;13071;48.868;9.996;2022-07-23T02:36:21;96483.59;;;21.96;70.65
25080;BME280;13071;48.868;9.996;2022-07-23T02:38:48;96489.47;;;22.02;70.53
25080;BME280;13071;48.868;9.996;2022-07-23T02:41:17;96489.50;;;21.98;70.66
25080;BME280;13071;48.868;9.996;2022-07-23T02:43:43;96489.09;;;21.96;70.26
25080;BME280;13071;48.868;9.996;2022-07-23T02:46:10;96492.28;;;21.94;70.00
25080;BME280;13071;48.868;9.996;2022-07-23T02:48:38;96490.31;;;21.91;70.44
25080;BME280;13071;48.868;9.996;2022-07-23T02:51:05;96498.66;;;21.84;70.30
25080;BME280;13071;48.868;9.996;2022-07-23T02:53:31;96499.09;;;21.76;70.50
25080;BME280;13071;48.868;9.996;2022-07-23T02:55:58;96497.09;;;21.80;70.37
25080;BME280;13071;48.868;9.996;2022-07-23T02:58:25;96510.47;;;21.81;69.81
25080;BME280;13071;48.868;9.996;2022-07-23T03:00:52;96512.91;;;21.72;69.25
25080;BME280;13071;48.868;9.996;2022-07-23T03:03:19;96508.06;;;21.87;68.77
25080;BME280;13071;48.868;9.996;2022-07-23T03:05:47;96514.00;;;21.82;68.89
25080;BME280;13071;48.868;9.996;2022-07-23T03:08:13;96512.44;;;21.81;68.83
25080;BME280;13071;48.868;9.996;2022-07-23T03:10:40;96527.75;;;21.85;68.56
25080;BME280;13071;48.868;9.996;2022-07-23T03:13:06;96536.03;;;21.85;68.43
25080;BME280;13071;48.868;9.996;2022-07-23T03:15:33;96535.69;;;21.80;68.86
25080;BME280;13071;48.868;9.996;2022-07-23T03:18:00;96536.47;;;21.77;68.80
25080;BME280;13071;48.868;9.996;2022-07-23T03:20:26;96527.81;;;21.78;70.38
25080;BME280;13071;48.868;9.996;2022-07-23T03:22:54;96533.44;;;21.57;70.51
25080;BME280;13071;48.868;9.996;2022-07-23T03:25:21;96527.59;;;21.51;70.06
25080;BME280;13071;48.868;9.996;2022-07-23T03:27:47;96532.72;;;21.49;70.58
25080;BME280;13071;48.868;9.996;2022-07-23T03:30:14;96532.28;;;21.58;70.38
25080;BME280;13071;48.868;9.996;2022-07-23T03:32:41;96543.38;;;21.44;70.93
25080;BME280;13071;48.868;9.996;2022-07-23T03:35:08;96537.44;;;21.49;70.15
25080;BME280;13071;48.868;9.996;2022-07-23T03:37:35;96532.66;;;21.60;70.41
25080;BME280;13071;48.868;9.996;2022-07-23T03:40:04;96543.78;;;21.46;71.56
25080;BME280;13071;48.868;9.996;2022-07-23T03:42:31;96548.13;;;21.40;71.38
25080;BME280;13071;48.868;9.996;2022-07-23T03:44:57;96551.31;;;21.28;71.74
25080;BME280;13071;48.868;9.996;2022-07-23T03:47:24;96553.72;;;21.26;71.88
25080;BME280;13071;48.868;9.996;2022-07-23T03:49:51;96555.25;;;21.27;71.34
25080;BME280;13071;48.868;9.996;2022-07-23T03:52:17;96552.91;;;21.22;71.80
25080;BME280;13071;48.868;9.996;2022-07-23T03:54:44;96569.44;;;21.25;71.98
25080;BME280;13071;48.868;9.996;2022-07-23T03:57:12;96563.16;;;21.25;73.07
25080;BME280;13071;48.868;9.996;2022-07-23T03:59:38;96555.34;;;21.05;73.47
25080;BME280;13071;48.868;9.996;2022-07-23T04:02:05;96559.66;;;21.06;72.99
25080;BME280;13071;48.868;9.996;2022-07-23T04:04:31;96546.69;;;21.03;73.30
25080;BME280;13071;48.868;9.996;2022-07-23T04:06:58;96553.44;;;20.88;74.78
25080;BME280;13071;48.868;9.996;2022-07-23T04:09:26;96551.88;;;20.91;75.35
25080;BME280;13071;48.868;9.996;2022-07-23T04:11:53;96547.53;;;20.90;75.83
25080;BME280;13071;48.868;9.996;2022-07-23T04:14:21;96546.75;;;20.89;75.84
25080;BME280;13071;48.868;9.996;2022-07-23T04:16:47;96553.84;;;20.90;75.68
25080;BME280;13071;48.868;9.996;2022-07-23T04:19:14;96549.91;;;20.84;76.41
25080;BME280;13071;48.868;9.996;2022-07-23T04:21:40;96550.63;;;21.02;75.83
25080;BME280;13071;48.868;9.996;2022-07-23T04:24:07;96558.81;;;21.24;74.72
25080;BME280;13071;48.868;9.996;2022-07-23T04:26:34;96555.63;;;21.36;74.47
25080;BME280;13071;48.868;9.996;2022-07-23T04:29:00;96545.63;;;21.63;73.86
25080;BME280;13071;48.868;9.996;2022-07-23T04:31:28;96551.81;;;21.78;73.12
25080;BME280;13071;48.868;9.996;2022-07-23T04:33:55;96552.56;;;21.82;72.60
25080;BME280;13071;48.868;9.996;2022-07-23T04:36:21;96552.78;;;22.09;71.86
25080;BME280;13071;48.868;9.996;2022-07-23T04:38:48;96556.22;;;22.61;70.83
25080;BME280;13071;48.868;9.996;2022-07-23T04:41:14;96560.75;;;23.15;68.92
25080;BME280;13071;48.868;9.996;2022-07-23T04:43:41;96567.47;;;23.75;67.07
25080;BME280;13071;48.868;9.996;2022-07-23T04:46:07;96558.91;;;24.43;64.52
25080;BME280;13071;48.868;9.996;2022-07-23T04:48:37;96571.44;;;24.94;64.16
25080;BME280;13071;48.868;9.996;2022-07-23T04:51:04;96559.50;;;25.36;62.23
25080;BME280;13071;48.868;9.996;2022-07-23T04:53:30;96563.09;;;25.73;60.71
25080;BME280;13071;48.868;9.996;2022-07-23T04:55:57;96564.75;;;26.03;60.18
25080;BME280;13071;48.868;9.996;2022-07-23T04:58:23;96559.16;;;26.23;59.65
25080;BME280;13071;48.868;9.996;2022-07-23T05:00:50;96554.50;;;26.64;58.72
25080;BME280;13071;48.868;9.996;2022-07-23T05:03:17;96549.88;;;26.90;58.83
25080;BME280;13071;48.868;9.996;2022-07-23T05:05:45;96546.09;;;27.13;58.50
25080;BME280;13071;48.868;9.996;2022-07-23T05:08:12;96541.09;;;27.33;57.78
25080;BME280;13071;48.868;9.996;2022-07-23T05:10:38;96545.19;;;27.16;57.48
25080;BME280;13071;48.868;9.996;2022-07-23T05:13:05;96543.56;;;27.31;58.09
25080;BME280;13071;48.868;9.996;2022-07-23T05:15:32;96546.72;;;27.59;57.36
25080;BME280;13071;48.868;9.996;2022-07-23T05:17:58;96549.75;;;28.02;56.57
25080;BME280;13071;48.868;9.996;2022-07-23T05:20:25;96557.97;;;27.80;56.96
25080;BME280;13071;48.868;9.996;2022-07-23T05:22:53;96559.72;;;28.38;55.86
25080;BME280;13071;48.868;9.996;2022-07-23T05:25:19;96563.16;;;28.54;54.56
25080;BME280;13071;48.868;9.996;2022-07-23T05:27:46;96559.25;;;28.52;54.42
25080;BME280;13071;48.868;9.996;2022-07-23T05:30:13;96555.28;;;28.40;54.56
25080;BME280;13071;48.868;9.996;2022-07-23T05:32:39;96563.13;;;28.20;55.33
25080;BME280;13071;48.868;9.996;2022-07-23T05:35:07;96560.97;;;27.99;54.55
25080;BME280;13071;48.868;9.996;2022-07-23T05:37:34;96560.75;;;27.80;55.44
25080;BME280;13071;48.868;9.996;2022-07-23T05:40:02;96559.53;;;27.69;56.00
25080;BME280;13071;48.868;9.996;2022-07-23T05:42:31;96569.50;;;27.54;56.30
25080;BME280;13071;48.868;9.996;2022-07-23T05:44:58;96567.13;;;27.27;56.92
25080;BME280;13071;48.868;9.996;2022-07-23T05:47:24;96570.03;;;26.78;57.87
25080;BME280;13071;48.868;9.996;2022-07-23T05:49:51;96583.56;;;26.11;59.25
25080;BME280;13071;48.868;9.996;2022-07-23T05:52:17;96572.78;;;25.65;60.31
25080;BME280;13071;48.868;9.996;2022-07-23T05:54:44;96579.06;;;25.10;61.65
25080;BME280;13071;48.868;9.996;2022-07-23T05:57:12;96578.41;;;24.79;63.44
25080;BME280;13071;48.868;9.996;2022-07-23T05:59:39;96582.50;;;24.51;65.05
25080;BME280;13071;48.868;9.996;2022-07-23T06:02:05;96581.59;;;24.34;65.11
25080;BME280;13071;48.868;9.996;2022-07-23T06:04:32;96584.03;;;24.29;66.10
25080;BME280;13071;48.868;9.996;2022-07-23T06:06:59;96581.91;;;24.13;65.79
25080;BME280;13071;48.868;9.996;2022-07-23T06:09:26;96588.34;;;24.06;65.77
25080;BME280;13071;48.868;9.996;2022-07-23T06:11:52;96600.66;;;24.02;66.39
25080;BME280;13071;48.868;9.996;2022-07-23T06:14:20;96601.84;;;24.01;65.73
25080;BME280;13071;48.868;9.996;2022-07-23T06:16:47;96596.66;;;24.03;65.04
25080;BME280;13071;48.868;9.996;2022-07-23T06:19:13;96607.38;;;24.01;65.56
25080;BME280;13071;48.868;9.996;2022-07-23T06:21:40;96608.47;;;24.07;65.86
25080;BME280;13071;48.868;9.996;2022-07-23T06:24:07;96612.44;;;24.06;66.31
25080;BME280;13071;48.868;9.996;2022-07-23T06:26:33;96618.19;;;23.92;66.52
25080;BME280;13071;48.868;9.996;2022-07-23T06:29:00;96607.84;;;23.96;66.93
25080;BME280;13071;48.868;9.996;2022-07-23T06:31:28;96597.31;;;23.87;66.87
25080;BME280;13071;48.868;9.996;2022-07-23T06:33:54;96602.63;;;24.01;67.42
25080;BME280;13071;48.868;9.996;2022-07-23T06:36:21;96605.25;;;24.12;66.88
25080;BME280;13071;48.868;9.996;2022-07-23T06:38:48;96604.72;;;24.21;66.76
25080;BME280;13071;48.868;9.996;2022-07-23T06:41:14;96613.81;;;24.21;66.47
25080;BME280;13071;48.868;9.996;2022-07-23T06:43:41;96615.41;;;24.19;67.02
25080;BME280;13071;48.868;9.996;2022-07-23T06:46:07;96617.78;;;24.20;67.25
25080;BME280;13071;48.868;9.996;2022-07-23T06:48:36;96619.09;;;24.08;67.39
25080;BME280;13071;48.868;9.996;2022-07-23T06:51:02;96613.25;;;24.03;68.46
25080;BME280;13071;48.868;9.996;2022-07-23T06:53:29;96617.13;;;24.09;67.65
25080;BME280;13071;48.868;9.996;2022-07-23T06:55:56;96614.97;;;23.93;67.85
25080;BME280;13071;48.868;9.996;2022-07-23T06:58:22;96610.31;;;24.14;67.24
25080;BME280;13071;48.868;9.996;2022-07-23T07:00:49;96608.94;;;24.29;67.07
25080;BME280;13071;48.868;9.996;2022-07-23T07:03:17;96601.34;;;24.33;67.09
25080;BME280;13071;48.868;9.996;2022-07-23T07:05:45;96599.03;;;24.31;65.74
25080;BME280;13071;48.868;9.996;2022-07-23T07:08:12;96609.44;;;24.47;66.09
25080;BME280;13071;48.868;9.996;2022-07-23T07:10:38;96603.41;;;24.52;65.10
25080;BME280;13071;48.868;9.996;2022-07-23T07:13:05;96618.56;;;23.63;68.71
25080;BME280;13071;48.868;9.996;2022-07-23T07:15:32;96617.22;;;23.45;69.14
25080;BME280;13071;48.868;9.996;2022-07-23T07:17:59;96623.53;;;23.76;69.83
25080;BME280;13071;48.868;9.996;2022-07-23T07:20:25;96614.41;;;24.05;68.47
25080;BME280;13071;48.868;9.996;2022-07-23T07:22:53;96629.69;;;24.17;68.06
25080;BME280;13071;48.868;9.996;2022-07-23T07:25:20;96624.09;;;24.44;67.56
25080;BME280;13071;48.868;9.996;2022-07-23T07:27:46;96635.59;;;24.16;69.12
25080;BME280;13071;48.868;9.996;2022-07-23T07:30:13;96626.31;;;24.99;67.75
25080;BME280;13071;48.868;9.996;2022-07-23T07:32:40;96624.69;;;25.41;64.67
25080;BME280;13071;48.868;9.996;2022-07-23T07:35:08;96627.91;;;25.79;63.16
25080;BME280;13071;48.868;9.996;2022-07-23T07:37:35;96633.44;;;25.40;63.39
25080;BME280;13071;48.868;9.996;2022-07-23T07:40:03;96631.41;;;26.15;60.79
25080;BME280;13071;48.868;9.996;2022-07-23T07:42:30;96635.03;;;26.48;63.03
25080;BME280;13071;48.868;9.996;2022-07-23T07:44:57;96640.00;;;26.21;61.21
25080;BME280;13071;48.868;9.996;2022-07-23T07:47:24;96651.56;;;26.19;60.46
25080;BME280;13071;48.868;9.996;2022-07-23T07:49:51;96638.66;;;26.78;59.12
25080;BME280;13071;48.868;9.996;2022-07-23T07:52:17;96653.13;;;26.85;59.07
25080;BME280;13071;48.868;9.996;2022-07-23T07:54:44;96659.03;;;26.71;58.25
25080;BME280;13071;48.868;9.996;2022-07-23T07:57:12;96659.00;;;25.47;62.06
25080;BME280;13071;48.868;9.996;2022-07-23T07:59:39;96672.59;;;24.99;63.87
25080;BME280;13071;48.868;9.996;2022-07-23T08:02:05;96678.94;;;24.99;63.70
25080;BME280;13071;48.868;9.996;2022-07-23T08:04:32;96679.66;;;24.30;66.21
25080;BME280;13071;48.868;9.996;2022-07-23T08:06:59;96690.09;;;24.69;65.10
25080;BME280;13071;48.868;9.996;2022-07-23T08:09:25;96685.97;;;24.30;66.98
25080;BME280;13071;48.868;9.996;2022-07-23T08:11:52;96687.31;;;24.45;65.68
25080;BME280;13071;48.868;9.996;2022-07-23T08:14:20;96679.06;;;23.85;65.08
25080;BME280;13071;48.868;9.996;2022-07-23T08:16:46;96670.56;;;24.02;66.12
25080;BME280;13071;48.868;9.996;2022-07-23T08:19:13;96673.66;;;24.04;66.00
25080;BME280;13071;48.868;9.996;2022-07-23T08:21:39;96682.22;;;24.17;64.94
25080;BME280;13071;48.868;9.996;2022-07-23T08:24:06;96680.75;;;24.05;64.41
25080;BME280;13071;48.868;9.996;2022-07-23T08:26:33;96688.50;;;24.18;65.06
25080;BME280;13071;48.868;9.996;2022-07-23T08:28:59;96688.19;;;23.82;67.02
25080;BME280;13071;48.868;9.996;2022-07-23T08:31:27;96687.31;;;23.88;66.43
25080;BME280;13071;48.868;9.996;2022-07-23T08:33:54;96686.28;;;23.45;68.00
25080;BME280;13071;48.868;9.996;2022-07-23T08:36:21;96687.66;;;23.26;66.91
25080;BME280;13071;48.868;9.996;2022-07-23T08:38:48;96693.84;;;23.34;66.73
25080;BME280;13071;48.868;9.996;2022-07-23T08:41:15;96694.91;;;23.13;67.57
25080;BME280;13071;48.868;9.996;2022-07-23T08:43:42;96691.25;;;23.19;67.08
25080;BME280;13071;48.868;9.996;2022-07-23T08:46:10;96693.13;;;23.30;67.68
25080;BME280;13071;48.868;9.996;2022-07-23T08:48:38;96699.84;;;23.29;68.54
25080;BME280;13071;48.868;9.996;2022-07-23T08:51:06;96704.06;;;23.40;67.42
25080;BME280;13071;48.868;9.996;2022-07-23T08:53:33;96706.78;;;23.47;68.71
25080;BME280;13071;48.868;9.996;2022-07-23T08:56:03;96716.44;;;23.25;68.29
25080;BME280;13071;48.868;9.996;2022-07-23T08:58:30;96708.44;;;23.34;67.64
25080;BME280;13071;48.868;9.996;2022-07-23T09:00:57;96719.72;;;23.88;69.26
25080;BME280;13071;48.868;9.996;2022-07-23T09:03:26;96706.34;;;24.40;66.08
25080;BME280;13071;48.868;9.996;2022-07-23T09:05:55;96695.09;;;23.97;64.68
25080;BME280;13071;48.868;9.996;2022-07-23T09:08:23;96693.28;;;24.17;64.99
25080;BME280;13071;48.868;9.996;2022-07-23T09:10:52;96689.91;;;24.56;61.73
25080;BME280;13071;48.868;9.996;2022-07-23T09:13:31;96686.00;;;25.23;61.96
25080;BME280;13071;48.868;9.996;2022-07-23T09:16:00;96688.97;;;24.39;64.12
25080;BME280;13071;48.868;9.996;2022-07-23T09:18:38;96703.94;;;24.15;63.24
25080;BME280;13071;48.868;9.996;2022-07-23T09:21:08;96705.09;;;24.71;64.49
25080;BME280;13071;48.868;9.996;2022-07-23T09:23:37;96708.41;;;25.09;60.22
25080;BME280;13071;48.868;9.996;2022-07-23T09:26:17;96705.75;;;24.79;60.07
25080;BME280;13071;48.868;9.996;2022-07-23T09:28:52;96704.16;;;24.28;61.18
25080;BME280;13071;48.868;9.996;2022-07-23T09:31:20;96699.09;;;24.49;59.41
25080;BME280;13071;48.868;9.996;2022-07-23T09:33:46;96695.66;;;25.15;58.11
25080;BME280;13071;48.868;9.996;2022-07-23T09:36:14;96683.44;;;25.32;57.51
25080;BME280;13071;48.868;9.996;2022-07-23T09:38:48;96687.16;;;25.46;57.59
25080;BME280;13071;48.868;9.996;2022-07-23T09:41:15;96687.31;;;25.58;58.05
25080;BME280;13071;48.868;9.996;2022-07-23T09:43:42;96690.19;;;25.51;58.30
25080;BME280;13071;48.868;9.996;2022-07-23T09:46:19;96692.78;;;25.62;57.66
25080;BME280;13071;48.868;9.996;2022-07-23T09:48:46;96680.81;;;26.04;58.37
25080;BME280;13071;48.868;9.996;2022-07-23T09:51:14;96686.78;;;25.44;60.09
25080;BME280;13071;48.868;9.996;2022-07-23T09:53:43;96680.78;;;26.24;57.13
25080;BME280;13071;48.868;9.996;2022-07-23T09:56:11;96679.78;;;26.83;57.47
25080;BME280;13071;48.868;9.996;2022-07-23T09:58:39;96680.28;;;26.45;57.51
25080;BME280;13071;48.868;9.996;2022-07-23T10:01:16;96678.81;;;26.73;56.13
25080;BME280;13071;48.868;9.996;2022-07-23T10:03:42;96666.06;;;27.37;58.40
25080;BME280;13071;48.868;9.996;2022-07-23T10:06:10;96673.13;;;26.64;56.03
25080;BME280;13071;48.868;9.996;2022-07-23T10:08:41;96661.72;;;26.42;57.74
25080;BME280;13071;48.868;9.996;2022-07-23T10:11:09;96671.63;;;26.92;55.70
25080;BME280;13071;48.868;9.996;2022-07-23T10:13:37;96674.25;;;25.59;58.17
25080;BME280;13071;48.868;9.996;2022-07-23T10:16:18;96676.13;;;26.70;56.45
25080;BME280;13071;48.868;9.996;2022-07-23T10:18:45;96677.53;;;26.78;57.17
25080;BME280;13071;48.868;9.996;2022-07-23T10:21:18;96669.63;;;26.92;56.91
25080;BME280;13071;48.868;9.996;2022-07-23T10:24:01;96668.72;;;27.12;54.80
25080;BME280;13071;48.868;9.996;2022-07-23T10:26:35;96671.69;;;27.49;55.38
25080;BME280;13071;48.868;9.996;2022-07-23T10:29:13;96669.28;;;26.90;55.71
25080;BME280;13071;48.868;9.996;2022-07-23T10:31:52;96673.69;;;26.72;57.30
25080;BME280;13071;48.868;9.996;2022-07-23T10:34:25;96666.16;;;26.20;57.98
25080;BME280;13071;48.868;9.996;2022-07-23T10:36:59;96675.22;;;27.21;56.51
25080;BME280;13071;48.868;9.996;2022-07-23T10:39:31;96666.53;;;27.19;55.63
25080;BME280;13071;48.868;9.996;2022-07-23T10:42:08;96666.16;;;27.33;57.01
25080;BME280;13071;48.868;9.996;2022-07-23T10:44:38;96660.78;;;27.97;54.34
25080;BME280;13071;48.868;9.996;2022-07-23T10:47:06;96652.34;;;28.38;53.10
25080;BME280;13071;48.868;9.996;2022-07-23T10:49:50;96657.03;;;28.54;54.36
25080;BME280;13071;48.868;9.996;2022-07-23T10:52:18;96659.50;;;27.43;54.75
25080;BME280;13071;48.868;9.996;2022-07-23T10:54:48;96659.47;;;27.31;56.40
25080;BME280;13071;48.868;9.996;2022-07-23T10:57:17;96652.75;;;27.44;55.92
25080;BME280;13071;48.868;9.996;2022-07-23T11:00:22;96657.47;;;27.31;54.07
25080;BME280;13071;48.868;9.996;2022-07-23T11:02:50;96651.94;;;27.60;53.59
25080;BME280;13071;48.868;9.996;2022-07-23T11:05:18;96646.25;;;28.30;53.26
25080;BME280;13071;48.868;9.996;2022-07-23T11:11:07;96648.78;;;28.12;55.17
25080;BME280;13071;48.868;9.996;2022-07-23T11:13:42;96643.34;;;28.34;55.03
25080;BME280;13071;48.868;9.996;2022-07-23T11:16:16;96644.78;;;28.51;52.76
25080;BME280;13071;48.868;9.996;2022-07-23T11:18:59;96651.88;;;27.89;53.65
25080;BME280;13071;48.868;9.996;2022-07-23T11:21:49;96642.09;;;27.97;53.34
25080;BME280;13071;48.868;9.996;2022-07-23T11:24:18;96645.63;;;27.15;55.35
25080;BME280;13071;48.868;9.996;2022-07-23T11:27:01;96649.50;;;26.56;57.01
25080;BME280;13071;48.868;9.996;2022-07-23T11:29:39;96644.19;;;26.94;57.85
25080;BME280;13071;48.868;9.996;2022-07-23T11:32:07;96647.44;;;27.50;55.14
25080;BME280;13071;48.868;9.996;2022-07-23T11:34:36;96640.41;;;27.45;55.89
25080;BME280;13071;48.868;9.996;2022-07-23T11:37:07;96643.31;;;26.81;57.92
25080;BME280;13071;48.868;9.996;2022-07-23T11:39:34;96645.94;;;27.33;55.28
25080;BME280;13071;48.868;9.996;2022-07-23T11:42:04;96644.94;;;27.11;54.69
25080;BME280;13071;48.868;9.996;2022-07-23T11:44:33;96641.19;;;26.88;55.63
25080;BME280;13071;48.868;9.996;2022-07-23T11:47:04;96648.59;;;27.65;54.07
25080;BME280;13071;48.868;9.996;2022-07-23T11:49:31;96649.84;;;26.90;56.45
25080;BME280;13071;48.868;9.996;2022-07-23T11:52:05;96637.72;;;26.68;57.18
25080;BME280;13071;48.868;9.996;2022-07-23T11:54:33;96632.84;;;26.40;57.74
25080;BME280;13071;48.868;9.996;2022-07-23T11:57:02;96632.66;;;26.31;57.66
25080;BME280;13071;48.868;9.996;2022-07-23T11:59:32;96633.03;;;26.49;57.37
25080;BME280;13071;48.868;9.996;2022-07-23T12:02:00;96628.22;;;26.98;56.51
25080;BME280;13071;48.868;9.996;2022-07-23T12:04:37;96629.91;;;26.47;56.29
25080;BME280;13071;48.868;9.996;2022-07-23T12:07:03;96623.63;;;26.75;56.12
25080;BME280;13071;48.868;9.996;2022-07-23T12:09:30;96625.66;;;26.58;57.28
25080;BME280;13071;48.868;9.996;2022-07-23T12:11:57;96614.31;;;26.53;57.28
25080;BME280;13071;48.868;9.996;2022-07-23T12:14:25;96614.00;;;27.25;56.58
25080;BME280;13071;48.868;9.996;2022-07-23T12:17:07;96626.06;;;26.73;56.83
25080;BME280;13071;48.868;9.996;2022-07-23T12:19:34;96632.59;;;26.67;58.21
25080;BME280;13071;48.868;9.996;2022-07-23T12:22:01;96628.25;;;26.65;57.28
25080;BME280;13071;48.868;9.996;2022-07-23T12:24:28;96634.72;;;27.08;57.24
25080;BME280;13071;48.868;9.996;2022-07-23T12:27:10;96626.50;;;26.72;57.09
25080;BME280;13071;48.868;9.996;2022-07-23T12:29:38;96625.75;;;26.87;55.57
25080;BME280;13071;48.868;9.996;2022-07-23T12:32:19;96624.72;;;27.10;55.43
25080;BME280;13071;48.868;9.996;2022-07-23T12:34:48;96620.72;;;27.11;56.50
25080;BME280;13071;48.868;9.996;2022-07-23T12:37:29;96631.09;;;26.78;55.32
25080;BME280;13071;48.868;9.996;2022-07-23T12:39:56;96633.00;;;26.65;54.37
25080;BME280;13071;48.868;9.996;2022-07-23T12:42:23;96641.50;;;27.06;54.86
25080;BME280;13071;48.868;9.996;2022-07-23T12:45:06;96643.22;;;26.84;54.61
25080;BME280;13071;48.868;9.996;2022-07-23T12:50:38;96633.50;;;27.66;54.36
25080;BME280;13071;48.868;9.996;2022-07-23T12:53:08;96641.59;;;27.32;52.69
25080;BME280;13071;48.868;9.996;2022-07-23T12:55:35;96638.31;;;27.21;52.15
25080;BME280;13071;48.868;9.996;2022-07-23T12:58:04;96641.78;;;27.25;52.81
25080;BME280;13071;48.868;9.996;2022-07-23T13:00:34;96644.25;;;27.35;55.58
25080;BME280;13071;48.868;9.996;2022-07-23T13:03:21;96639.66;;;27.00;54.20
25080;BME280;13071;48.868;9.996;2022-07-23T13:05:47;96641.97;;;26.89;53.54
25080;BME280;13071;48.868;9.996;2022-07-23T13:08:14;96646.13;;;26.97;54.45
25080;BME280;13071;48.868;9.996;2022-07-23T13:10:41;96647.94;;;27.03;54.66
25080;BME280;13071;48.868;9.996;2022-07-23T13:13:08;96645.56;;;27.18;53.95